Walton, West Virginia
Current Conditions -  °F | °C
As of 11:54 AM on Friday 28 Nov 2014 (Local Time) from KCRW Reporting Station
Broken Clouds Broken Clouds  
Wind Chill: 23°   Ceiling: 3400
Heat Index: 31°   Visibility: 10mi
Dew Point: 16°   Wind: 8mph
Humidity: 54%   Direction: 250°WSW
Pressure: 30.36"   Gusts: NA
Location:  38.64°N, 81.4°W
Report Text: KCRW 281654Z 25007KT 10SM BKN034 BKN170 M01/M09 A3036 RMK AO2 SLP290 T10061089
Loading
Personal Weather Stations






























Interactive Weather Map New forecast layout! Learn more

10-Day Weather Forecast

Advertisements
Track Severe Weather on mobile